Beaverdam, Utah
Current Conditions -  °F | °C
As of 5:51 PM on Tuesday 21 Oct 2014 (Local Time) from KLGU Reporting Station
Few Clouds Few Clouds  
Wind Chill: 56°   Ceiling: Unl
Heat Index: 56°   Visibility: 10mi
Dew Point: 35°   Wind: 12mph
Humidity: 45%   Direction: 350°N
Pressure: 30.03"   Gusts: NA
Location:  41.8005°N, 112.082°W
Report Text: KLGU 212351Z AUTO 35010KT 10SM FEW060 13/02 A3003 RMK AO2 SLP148 60000 T01330017 10144 20117 52005 TSNO
Loading
Personal Weather Stations






























Interactive Weather Map
Tropical Storm Tracking
New forecast layout! Learn more

10-Day Weather Forecast

Advertisements
Track Severe Weather on mobile